sensor_id;sensor_type;location;lat;lon;timestamp;pressure;altitude;pressure_sealevel;temperature;humidity
82293;BME280;71892;14.836;105.234;2023-08-01T00:00:10;99128.19;;;25.17;90.23
82293;BME280;71892;14.836;105.234;2023-08-01T00:02:37;99133.53;;;25.19;90.30
82293;BME280;71892;14.836;105.234;2023-08-01T00:05:04;99156.44;;;25.15;90.07
82293;BME280;71892;14.836;105.234;2023-08-01T00:07:31;99137.56;;;25.12;90.18
82293;BME280;71892;14.836;105.234;2023-08-01T00:09:57;99154.59;;;25.15;90.30
82293;BME280;71892;14.836;105.234;2023-08-01T00:12:24;99154.53;;;25.17;90.66
82293;BME280;71892;14.836;105.234;2023-08-01T00:14:51;99160.66;;;25.20;90.36
82293;BME280;71892;14.836;105.234;2023-08-01T00:17:17;99158.56;;;25.25;90.36
82293;BME280;71892;14.836;105.234;2023-08-01T00:19:44;99160.84;;;25.33;90.24
82293;BME280;71892;14.836;105.234;2023-08-01T00:22:10;99162.38;;;25.38;90.27
82293;BME280;71892;14.836;105.234;2023-08-01T00:24:37;99093.28;;;25.41;89.64
82293;BME280;71892;14.836;105.234;2023-08-01T00:27:04;99169.25;;;25.45;89.47
82293;BME280;71892;14.836;105.234;2023-08-01T00:29:31;99167.16;;;25.50;89.59
82293;BME280;71892;14.836;105.234;2023-08-01T00:31:57;99172.66;;;25.49;89.39
82293;BME280;71892;14.836;105.234;2023-08-01T00:34:23;99169.88;;;25.50;89.70
82293;BME280;71892;14.836;105.234;2023-08-01T00:36:50;99172.38;;;25.55;89.40
82293;BME280;71892;14.836;105.234;2023-08-01T00:39:16;99176.28;;;25.49;89.13
82293;BME280;71892;14.836;105.234;2023-08-01T00:41:43;99177.03;;;25.51;88.96
82293;BME280;71892;14.836;105.234;2023-08-01T00:44:09;99181.47;;;25.54;89.25
82293;BME280;71892;14.836;105.234;2023-08-01T00:46:36;99178.69;;;25.56;89.25
82293;BME280;71892;14.836;105.234;2023-08-01T00:49:03;99184.84;;;25.59;88.67
82293;BME280;71892;14.836;105.234;2023-08-01T00:51:31;99189.06;;;25.65;88.60
82293;BME280;71892;14.836;105.234;2023-08-01T00:53:59;99188.81;;;25.69;88.32
82293;BME280;71892;14.836;105.234;2023-08-01T00:56:26;99199.44;;;25.74;88.24
82293;BME280;71892;14.836;105.234;2023-08-01T00:58:53;99199.25;;;25.77;88.52
82293;BME280;71892;14.836;105.234;2023-08-01T01:01:19;99195.25;;;25.84;88.26
82293;BME280;71892;14.836;105.234;2023-08-01T01:03:46;99187.31;;;25.95;87.88
82293;BME280;71892;14.836;105.234;2023-08-01T01:08:41;99202.09;;;26.07;87.23
82293;BME280;71892;14.836;105.234;2023-08-01T01:11:08;99200.66;;;26.15;87.01
82293;BME280;71892;14.836;105.234;2023-08-01T01:13:34;99210.19;;;26.24;86.68
82293;BME280;71892;14.836;105.234;2023-08-01T01:16:01;99184.69;;;26.25;86.02
82293;BME280;71892;14.836;105.234;2023-08-01T01:18:27;99213.53;;;26.29;86.04
82293;BME280;71892;14.836;105.234;2023-08-01T01:20:54;99212.91;;;26.39;85.78
82293;BME280;71892;14.836;105.234;2023-08-01T01:23:21;99210.63;;;26.48;85.20
82293;BME280;71892;14.836;105.234;2023-08-01T01:25:49;99216.50;;;26.56;85.30
82293;BME280;71892;14.836;105.234;2023-08-01T01:28:17;99199.84;;;26.60;85.49
82293;BME280;71892;14.836;105.234;2023-08-01T01:30:45;99206.59;;;26.69;84.57
82293;BME280;71892;14.836;105.234;2023-08-01T01:33:12;99205.56;;;26.71;84.09
82293;BME280;71892;14.836;105.234;2023-08-01T01:35:39;99211.41;;;26.79;83.55
82293;BME280;71892;14.836;105.234;2023-08-01T01:38:06;99210.13;;;26.87;83.51
82293;BME280;71892;14.836;105.234;2023-08-01T01:40:33;99222.31;;;26.95;82.72
82293;BME280;71892;14.836;105.234;2023-08-01T01:43:00;99209.88;;;27.05;82.58
82293;BME280;71892;14.836;105.234;2023-08-01T01:45:27;99225.84;;;27.11;82.58
82293;BME280;71892;14.836;105.234;2023-08-01T01:47:54;99223.34;;;27.22;81.53
82293;BME280;71892;14.836;105.234;2023-08-01T01:50:20;99222.59;;;27.35;81.75
82293;BME280;71892;14.836;105.234;2023-08-01T01:52:47;99209.25;;;27.44;80.92
82293;BME280;71892;14.836;105.234;2023-08-01T01:55:13;99216.00;;;27.53;81.61
82293;BME280;71892;14.836;105.234;2023-08-01T01:57:40;99211.88;;;27.60;81.34
82293;BME280;71892;14.836;105.234;2023-08-01T02:00:07;99214.63;;;27.60;80.77
82293;BME280;71892;14.836;105.234;2023-08-01T02:02:37;99227.72;;;27.69;80.28
82293;BME280;71892;14.836;105.234;2023-08-01T02:05:03;99227.13;;;27.78;79.78
82293;BME280;71892;14.836;105.234;2023-08-01T02:07:30;99212.00;;;27.87;79.67
82293;BME280;71892;14.836;105.234;2023-08-01T02:09:56;99222.53;;;27.93;78.97
82293;BME280;71892;14.836;105.234;2023-08-01T02:12:23;99229.06;;;27.90;79.38
82293;BME280;71892;14.836;105.234;2023-08-01T02:14:49;99202.97;;;27.99;79.75
82293;BME280;71892;14.836;105.234;2023-08-01T02:17:16;99217.91;;;28.07;79.02
82293;BME280;71892;14.836;105.234;2023-08-01T02:19:42;99219.88;;;28.20;78.52
82293;BME280;71892;14.836;105.234;2023-08-01T02:22:09;99228.03;;;28.34;78.10
82293;BME280;71892;14.836;105.234;2023-08-01T02:24:35;99232.88;;;28.43;77.76
82293;BME280;71892;14.836;105.234;2023-08-01T02:27:02;99223.38;;;28.48;76.92
82293;BME280;71892;14.836;105.234;2023-08-01T02:29:28;99219.38;;;28.54;77.21
82293;BME280;71892;14.836;105.234;2023-08-01T02:31:54;99225.88;;;28.66;75.58
82293;BME280;71892;14.836;105.234;2023-08-01T02:34:22;99228.25;;;28.58;77.37
82293;BME280;71892;14.836;105.234;2023-08-01T02:36:48;99225.06;;;28.78;77.54
82293;BME280;71892;14.836;105.234;2023-08-01T02:39:15;99221.94;;;28.97;76.85
82293;BME280;71892;14.836;105.234;2023-08-01T02:41:41;99216.78;;;28.92;74.62
82293;BME280;71892;14.836;105.234;2023-08-01T02:44:07;99224.09;;;28.91;75.00
82293;BME280;71892;14.836;105.234;2023-08-01T02:46:34;99218.78;;;29.03;74.31
82293;BME280;71892;14.836;105.234;2023-08-01T02:49:01;99212.09;;;29.07;74.88
82293;BME280;71892;14.836;105.234;2023-08-01T02:51:28;99204.34;;;29.13;73.90
82293;BME280;71892;14.836;105.234;2023-08-01T02:53:55;99211.13;;;29.08;73.82
82293;BME280;71892;14.836;105.234;2023-08-01T02:56:21;99201.03;;;29.08;73.93
82293;BME280;71892;14.836;105.234;2023-08-01T02:58:48;99206.53;;;29.21;74.04
82293;BME280;71892;14.836;105.234;2023-08-01T03:01:14;99199.97;;;29.23;73.60
82293;BME280;71892;14.836;105.234;2023-08-01T03:03:41;99186.69;;;29.30;72.12
82293;BME280;71892;14.836;105.234;2023-08-01T03:06:08;99193.53;;;29.37;72.94
82293;BME280;71892;14.836;105.234;2023-08-01T03:08:34;99189.50;;;29.43;72.58
82293;BME280;71892;14.836;105.234;2023-08-01T03:11:01;99179.50;;;29.54;72.08
82293;BME280;71892;14.836;105.234;2023-08-01T03:13:27;99184.00;;;29.55;71.17
82293;BME280;71892;14.836;105.234;2023-08-01T03:15:54;99194.97;;;29.43;72.29
82293;BME280;71892;14.836;105.234;2023-08-01T03:18:20;99184.34;;;29.38;71.55
82293;BME280;71892;14.836;105.234;2023-08-01T03:20:47;99174.28;;;29.39;72.76
82293;BME280;71892;14.836;105.234;2023-08-01T03:23:13;99167.66;;;29.54;72.81
82293;BME280;71892;14.836;105.234;2023-08-01T03:25:40;99160.56;;;29.51;72.35
82293;BME280;71892;14.836;105.234;2023-08-01T03:28:07;99159.03;;;29.47;72.53
82293;BME280;71892;14.836;105.234;2023-08-01T03:30:33;99155.31;;;29.48;72.66
82293;BME280;71892;14.836;105.234;2023-08-01T03:33:01;99144.66;;;29.56;72.54
82293;BME280;71892;14.836;105.234;2023-08-01T03:35:28;99143.22;;;29.51;72.33
82293;BME280;71892;14.836;105.234;2023-08-01T03:37:55;99146.97;;;29.37;72.13
82293;BME280;71892;14.836;105.234;2023-08-01T03:40:21;99142.47;;;29.23;73.33
82293;BME280;71892;14.836;105.234;2023-08-01T03:42:48;99141.69;;;29.34;73.38
82293;BME280;71892;14.836;105.234;2023-08-01T03:45:14;99144.13;;;29.51;74.02
82293;BME280;71892;14.836;105.234;2023-08-01T03:47:41;99151.53;;;29.74;71.63
82293;BME280;71892;14.836;105.234;2023-08-01T03:50:07;99151.94;;;29.94;70.65
82293;BME280;71892;14.836;105.234;2023-08-01T03:52:34;99154.53;;;30.08;70.38
82293;BME280;71892;14.836;105.234;2023-08-01T03:55:00;99151.41;;;30.25;70.44
82293;BME280;71892;14.836;105.234;2023-08-01T03:57:27;99154.53;;;30.32;70.65
82293;BME280;71892;14.836;105.234;2023-08-01T03:59:53;99148.91;;;30.46;69.63
82293;BME280;71892;14.836;105.234;2023-08-01T04:02:20;99140.09;;;30.53;68.74
82293;BME280;71892;14.836;105.234;2023-08-01T04:04:46;99145.81;;;30.50;68.69
82293;BME280;71892;14.836;105.234;2023-08-01T04:07:16;99151.44;;;30.49;69.23
82293;BME280;71892;14.836;105.234;2023-08-01T04:09:42;99143.75;;;30.41;69.39
82293;BME280;71892;14.836;105.234;2023-08-01T04:12:09;99142.34;;;30.36;68.76
82293;BME280;71892;14.836;105.234;2023-08-01T04:14:35;99140.81;;;30.32;69.26
82293;BME280;71892;14.836;105.234;2023-08-01T04:17:02;99135.59;;;30.29;70.11
82293;BME280;71892;14.836;105.234;2023-08-01T04:19:28;99142.69;;;30.31;69.59
82293;BME280;71892;14.836;105.234;2023-08-01T04:21:55;99138.22;;;30.30;69.40
82293;BME280;71892;14.836;105.234;2023-08-01T04:24:21;99131.59;;;30.33;68.99
82293;BME280;71892;14.836;105.234;2023-08-01T04:26:51;99141.69;;;30.32;69.53
82293;BME280;71892;14.836;105.234;2023-08-01T04:29:18;99135.34;;;30.32;69.77
82293;BME280;71892;14.836;105.234;2023-08-01T04:31:45;99136.56;;;30.28;70.16
82293;BME280;71892;14.836;105.234;2023-08-01T04:34:11;99139.59;;;30.12;70.84
82293;BME280;71892;14.836;105.234;2023-08-01T04:36:38;99128.22;;;30.05;70.35
82293;BME280;71892;14.836;105.234;2023-08-01T04:39:04;99130.09;;;30.05;69.53
82293;BME280;71892;14.836;105.234;2023-08-01T04:41:31;99118.00;;;30.07;68.78
82293;BME280;71892;14.836;105.234;2023-08-01T04:43:58;99115.06;;;29.98;70.05
82293;BME280;71892;14.836;105.234;2023-08-01T04:46:24;99127.63;;;29.89;71.54
82293;BME280;71892;14.836;105.234;2023-08-01T04:48:51;99124.41;;;29.95;70.80
82293;BME280;71892;14.836;105.234;2023-08-01T04:51:17;99123.31;;;29.85;70.27
82293;BME280;71892;14.836;105.234;2023-08-01T04:53:43;99129.34;;;29.77;69.91
82293;BME280;71892;14.836;105.234;2023-08-01T04:56:10;99126.84;;;29.74;70.74
82293;BME280;71892;14.836;105.234;2023-08-01T04:58:36;99129.94;;;29.70;70.96
82293;BME280;71892;14.836;105.234;2023-08-01T05:01:03;99126.84;;;29.74;70.71
82293;BME280;71892;14.836;105.234;2023-08-01T05:03:29;99121.28;;;29.76;70.91
82293;BME280;71892;14.836;105.234;2023-08-01T05:05:56;99114.38;;;29.70;68.91
82293;BME280;71892;14.836;105.234;2023-08-01T05:08:22;99081.72;;;29.67;69.76
82293;BME280;71892;14.836;105.234;2023-08-01T05:10:49;99109.88;;;29.69;71.10
82293;BME280;71892;14.836;105.234;2023-08-01T05:13:16;99103.84;;;29.77;72.09
82293;BME280;71892;14.836;105.234;2023-08-01T05:15:46;99103.25;;;29.85;70.03
82293;BME280;71892;14.836;105.234;2023-08-01T05:18:18;99104.88;;;29.87;69.91
82293;BME280;71892;14.836;105.234;2023-08-01T05:20:45;99100.28;;;29.88;69.92
82293;BME280;71892;14.836;105.234;2023-08-01T05:23:11;99086.72;;;29.86;68.46
82293;BME280;71892;14.836;105.234;2023-08-01T05:25:38;99093.28;;;29.84;69.37
82293;BME280;71892;14.836;105.234;2023-08-01T05:28:04;99086.38;;;29.78;69.29
82293;BME280;71892;14.836;105.234;2023-08-01T05:30:31;99093.63;;;29.79;69.72
82293;BME280;71892;14.836;105.234;2023-08-01T05:32:57;99087.78;;;29.84;68.66
82293;BME280;71892;14.836;105.234;2023-08-01T05:35:24;99088.88;;;29.94;69.90
82293;BME280;71892;14.836;105.234;2023-08-01T05:37:50;99089.88;;;29.93;69.95
82293;BME280;71892;14.836;105.234;2023-08-01T05:40:17;99087.91;;;29.95;69.64
82293;BME280;71892;14.836;105.234;2023-08-01T05:42:43;99084.28;;;29.94;70.14
82293;BME280;71892;14.836;105.234;2023-08-01T05:45:10;99076.16;;;29.93;68.82
82293;BME280;71892;14.836;105.234;2023-08-01T05:47:37;99056.53;;;29.99;69.84
82293;BME280;71892;14.836;105.234;2023-08-01T05:50:06;99067.94;;;29.93;69.44
82293;BME280;71892;14.836;105.234;2023-08-01T05:52:34;99080.66;;;29.94;70.26
82293;BME280;71892;14.836;105.234;2023-08-01T05:55:00;99080.41;;;29.97;68.87
82293;BME280;71892;14.836;105.234;2023-08-01T05:57:27;99083.47;;;30.05;69.60
82293;BME280;71892;14.836;105.234;2023-08-01T05:59:53;99082.31;;;30.20;70.97
82293;BME280;71892;14.836;105.234;2023-08-01T06:02:20;99081.19;;;30.22;68.99
82293;BME280;71892;14.836;105.234;2023-08-01T06:04:46;99070.00;;;30.26;68.20
82293;BME280;71892;14.836;105.234;2023-08-01T06:07:13;99075.66;;;30.35;68.21
82293;BME280;71892;14.836;105.234;2023-08-01T06:09:39;99070.69;;;30.40;70.00
82293;BME280;71892;14.836;105.234;2023-08-01T06:12:06;99069.44;;;30.44;69.22
82293;BME280;71892;14.836;105.234;2023-08-01T06:14:33;99075.16;;;30.41;67.96
82293;BME280;71892;14.836;105.234;2023-08-01T06:16:59;99066.91;;;30.30;68.35
82293;BME280;71892;14.836;105.234;2023-08-01T06:19:25;99068.75;;;30.30;68.67
82293;BME280;71892;14.836;105.234;2023-08-01T06:21:52;99062.34;;;30.18;68.04
82293;BME280;71892;14.836;105.234;2023-08-01T06:24:18;99058.97;;;30.14;68.01
82293;BME280;71892;14.836;105.234;2023-08-01T06:26:45;99059.06;;;30.13;67.40
82293;BME280;71892;14.836;105.234;2023-08-01T06:29:11;99056.13;;;30.16;69.56
82293;BME280;71892;14.836;105.234;2023-08-01T06:31:38;99052.19;;;30.07;68.07
82293;BME280;71892;14.836;105.234;2023-08-01T06:34:04;99059.31;;;30.10;69.94
82293;BME280;71892;14.836;105.234;2023-08-01T06:36:31;99054.59;;;30.12;69.05
82293;BME280;71892;14.836;105.234;2023-08-01T06:38:58;99048.09;;;30.13;68.79
82293;BME280;71892;14.836;105.234;2023-08-01T06:41:25;99049.44;;;30.07;70.06
82293;BME280;71892;14.836;105.234;2023-08-01T06:43:51;99044.84;;;30.08;70.16
82293;BME280;71892;14.836;105.234;2023-08-01T06:46:17;99042.47;;;30.03;70.78
82293;BME280;71892;14.836;105.234;2023-08-01T06:48:44;99039.66;;;29.92;71.05
82293;BME280;71892;14.836;105.234;2023-08-01T06:51:11;99038.56;;;29.95;70.73
82293;BME280;71892;14.836;105.234;2023-08-01T06:53:37;99043.72;;;29.87;71.38
82293;BME280;71892;14.836;105.234;2023-08-01T06:56:04;99028.94;;;29.89;71.25
82293;BME280;71892;14.836;105.234;2023-08-01T06:58:30;99030.59;;;29.92;70.04
82293;BME280;71892;14.836;105.234;2023-08-01T07:00:57;99028.59;;;29.94;69.44
82293;BME280;71892;14.836;105.234;2023-08-01T07:03:23;99031.44;;;29.92;70.20
82293;BME280;71892;14.836;105.234;2023-08-01T07:05:50;99024.22;;;29.91;70.03
82293;BME280;71892;14.836;105.234;2023-08-01T07:08:16;99025.84;;;29.94;70.27
82293;BME280;71892;14.836;105.234;2023-08-01T07:10:43;99029.47;;;29.94;70.57
82293;BME280;71892;14.836;105.234;2023-08-01T07:13:09;99034.84;;;29.96;70.36
82293;BME280;71892;14.836;105.234;2023-08-01T07:15:35;99035.56;;;29.98;70.00
82293;BME280;71892;14.836;105.234;2023-08-01T07:18:02;99032.84;;;29.98;70.33
82293;BME280;71892;14.836;105.234;2023-08-01T07:20:28;99019.91;;;30.00;70.51
82293;BME280;71892;14.836;105.234;2023-08-01T07:22:55;99035.50;;;29.87;70.77
82293;BME280;71892;14.836;105.234;2023-08-01T07:25:21;99034.03;;;29.70;70.36
82293;BME280;71892;14.836;105.234;2023-08-01T07:27:48;99022.88;;;29.60;70.73
82293;BME280;71892;14.836;105.234;2023-08-01T07:30:14;99024.03;;;29.45;72.10
82293;BME280;71892;14.836;105.234;2023-08-01T07:32:41;99027.09;;;29.41;73.02
82293;BME280;71892;14.836;105.234;2023-08-01T07:35:09;99012.66;;;29.39;73.41
82293;BME280;71892;14.836;105.234;2023-08-01T07:37:36;99020.00;;;29.38;73.52
82293;BME280;71892;14.836;105.234;2023-08-01T07:40:05;99012.19;;;29.45;72.85
82293;BME280;71892;14.836;105.234;2023-08-01T07:42:32;99010.97;;;29.49;73.78
82293;BME280;71892;14.836;105.234;2023-08-01T07:44:58;99008.13;;;29.50;72.99
82293;BME280;71892;14.836;105.234;2023-08-01T07:47:25;99009.44;;;29.57;72.98
82293;BME280;71892;14.836;105.234;2023-08-01T07:49:52;99010.63;;;29.53;71.49
82293;BME280;71892;14.836;105.234;2023-08-01T07:52:18;99006.72;;;29.45;73.37
82293;BME280;71892;14.836;105.234;2023-08-01T07:54:44;98997.72;;;29.30;73.93
82293;BME280;71892;14.836;105.234;2023-08-01T07:57:11;98995.78;;;29.19;73.92
82293;BME280;71892;14.836;105.234;2023-08-01T07:59:38;98995.28;;;29.14;74.91
82293;BME280;71892;14.836;105.234;2023-08-01T08:02:04;98989.66;;;29.16;75.15
82293;BME280;71892;14.836;105.234;2023-08-01T08:04:31;98993.47;;;29.26;74.49
82293;BME280;71892;14.836;105.234;2023-08-01T08:06:57;98968.59;;;29.29;74.83
82293;BME280;71892;14.836;105.234;2023-08-01T08:09:26;98985.13;;;29.40;73.84
82293;BME280;71892;14.836;105.234;2023-08-01T08:11:53;98971.44;;;29.40;73.33
82293;BME280;71892;14.836;105.234;2023-08-01T08:14:19;98979.03;;;29.36;75.14
82293;BME280;71892;14.836;105.234;2023-08-01T08:16:47;98977.16;;;29.37;76.33
82293;BME280;71892;14.836;105.234;2023-08-01T08:19:13;98972.13;;;29.31;75.84
82293;BME280;71892;14.836;105.234;2023-08-01T08:21:40;98963.25;;;29.27;75.03
82293;BME280;71892;14.836;105.234;2023-08-01T08:24:06;98968.31;;;29.21;76.08
82293;BME280;71892;14.836;105.234;2023-08-01T08:26:33;98959.09;;;29.22;74.97
82293;BME280;71892;14.836;105.234;2023-08-01T08:29:04;98963.06;;;29.18;76.09
82293;BME280;71892;14.836;105.234;2023-08-01T08:31:33;98948.50;;;29.17;76.91
82293;BME280;71892;14.836;105.234;2023-08-01T08:33:59;98960.72;;;29.24;76.28
82293;BME280;71892;14.836;105.234;2023-08-01T08:36:26;98926.53;;;29.30;75.34
82293;BME280;71892;14.836;105.234;2023-08-01T08:38:52;98956.59;;;29.31;76.00
82293;BME280;71892;14.836;105.234;2023-08-01T08:41:23;98951.00;;;29.33;74.94
82293;BME280;71892;14.836;105.234;2023-08-01T08:43:55;98948.44;;;29.30;75.81
82293;BME280;71892;14.836;105.234;2023-08-01T08:46:28;98942.91;;;29.19;76.16
82293;BME280;71892;14.836;105.234;2023-08-01T08:48:59;98943.75;;;29.19;75.51
82293;BME280;71892;14.836;105.234;2023-08-01T08:51:27;98943.94;;;29.29;75.91
82293;BME280;71892;14.836;105.234;2023-08-01T08:53:55;98949.69;;;29.39;74.35
82293;BME280;71892;14.836;105.234;2023-08-01T08:56:23;98935.22;;;29.36;74.95
82293;BME280;71892;14.836;105.234;2023-08-01T08:58:49;98935.97;;;29.39;75.05
82293;BME280;71892;14.836;105.234;2023-08-01T09:01:17;98937.69;;;29.40;74.62
82293;BME280;71892;14.836;105.234;2023-08-01T09:03:44;98930.75;;;29.23;75.35
82293;BME280;71892;14.836;105.234;2023-08-01T09:06:16;98870.44;;;29.12;75.97
82293;BME280;71892;14.836;105.234;2023-08-01T09:08:53;98926.09;;;29.00;75.91
82293;BME280;71892;14.836;105.234;2023-08-01T09:11:21;98930.03;;;28.95;77.60
82293;BME280;71892;14.836;105.234;2023-08-01T09:13:48;98880.66;;;28.97;77.20
82293;BME280;71892;14.836;105.234;2023-08-01T09:16:16;98918.00;;;28.98;76.69
82293;BME280;71892;14.836;105.234;2023-08-01T09:18:51;98915.25;;;28.98;77.40
82293;BME280;71892;14.836;105.234;2023-08-01T09:21:22;98920.31;;;28.91;78.06
82293;BME280;71892;14.836;105.234;2023-08-01T09:23:48;98916.06;;;28.87;77.78
82293;BME280;71892;14.836;105.234;2023-08-01T09:26:18;98915.06;;;28.76;79.48
82293;BME280;71892;14.836;105.234;2023-08-01T09:28:58;98903.91;;;28.66;79.67
82293;BME280;71892;14.836;105.234;2023-08-01T09:31:33;98906.97;;;28.62;79.29
82293;BME280;71892;14.836;105.234;2023-08-01T09:34:00;98844.41;;;28.57;80.50
82293;BME280;71892;14.836;105.234;2023-08-01T09:36:27;98908.09;;;28.59;81.53
82293;BME280;71892;14.836;105.234;2023-08-01T09:38:58;98909.84;;;28.60;80.57
82293;BME280;71892;14.836;105.234;2023-08-01T09:41:25;98900.13;;;28.56;81.88
82293;BME280;71892;14.836;105.234;2023-08-01T09:43:52;98902.94;;;28.55;81.04
82293;BME280;71892;14.836;105.234;2023-08-01T09:46:18;98903.28;;;28.50;81.85
82293;BME280;71892;14.836;105.234;2023-08-01T09:48:45;98905.25;;;28.48;81.51
82293;BME280;71892;14.836;105.234;2023-08-01T09:51:16;98909.53;;;28.39;82.02
82293;BME280;71892;14.836;105.234;2023-08-01T09:53:56;98915.09;;;28.25;80.64
82293;BME280;71892;14.836;105.234;2023-08-01T09:56:25;98916.97;;;28.12;82.53
82293;BME280;71892;14.836;105.234;2023-08-01T09:58:54;98913.41;;;28.10;82.76
82293;BME280;71892;14.836;105.234;2023-08-01T10:01:24;98911.38;;;28.14;82.98
82293;BME280;71892;14.836;105.234;2023-08-01T10:03:52;98915.94;;;28.13;83.14
82293;BME280;71892;14.836;105.234;2023-08-01T10:06:20;98917.50;;;28.17;83.01
82293;BME280;71892;14.836;105.234;2023-08-01T10:08:48;98921.88;;;28.20;82.51
82293;BME280;71892;14.836;105.234;2023-08-01T10:11:16;98916.50;;;28.18;81.98
82293;BME280;71892;14.836;105.234;2023-08-01T10:13:56;98916.84;;;28.14;83.18
82293;BME280;71892;14.836;105.234;2023-08-01T10:16:24;98923.03;;;28.03;83.02
82293;BME280;71892;14.836;105.234;2023-08-01T10:18:51;98918.19;;;27.94;83.68
82293;BME280;71892;14.836;105.234;2023-08-01T10:21:18;98921.47;;;27.86;84.21
82293;BME280;71892;14.836;105.234;2023-08-01T10:23:47;98924.31;;;27.85;85.17
82293;BME280;71892;14.836;105.234;2023-08-01T10:26:14;98929.44;;;27.77;85.53
82293;BME280;71892;14.836;105.234;2023-08-01T10:28:49;98922.13;;;27.77;84.77
82293;BME280;71892;14.836;105.234;2023-08-01T10:31:17;98903.88;;;27.78;84.60
82293;BME280;71892;14.836;105.234;2023-08-01T10:33:46;98930.75;;;27.84;84.69
82293;BME280;71892;14.836;105.234;2023-08-01T10:36:16;98931.63;;;27.84;83.68
82293;BME280;71892;14.836;105.234;2023-08-01T10:38:48;98931.06;;;27.79;84.15
82293;BME280;71892;14.836;105.234;2023-08-01T10:41:19;98936.09;;;27.73;84.77
82293;BME280;71892;14.836;105.234;2023-08-01T10:43:46;98937.47;;;27.65;85.19
82293;BME280;71892;14.836;105.234;2023-08-01T10:46:12;98932.25;;;27.62;85.67
82293;BME280;71892;14.836;105.234;2023-08-01T10:48:52;98936.16;;;27.58;85.41
82293;BME280;71892;14.836;105.234;2023-08-01T10:51:18;98934.50;;;27.56;85.06
82293;BME280;71892;14.836;105.234;2023-08-01T10:53:45;98912.78;;;27.54;84.66
82293;BME280;71892;14.836;105.234;2023-08-01T10:56:19;98941.94;;;27.54;85.41
82293;BME280;71892;14.836;105.234;2023-08-01T10:58:47;98943.00;;;27.51;84.77
82293;BME280;71892;14.836;105.234;2023-08-01T11:01:14;98936.06;;;27.46;85.59
82293;BME280;71892;14.836;105.234;2023-08-01T11:03:40;98948.19;;;27.42;85.39
82293;BME280;71892;14.836;105.234;2023-08-01T11:06:08;98952.88;;;27.40;85.83
82293;BME280;71892;14.836;105.234;2023-08-01T11:08:36;98925.75;;;27.37;86.05
82293;BME280;71892;14.836;105.234;2023-08-01T11:11:07;98906.97;;;27.32;85.70
82293;BME280;71892;14.836;105.234;2023-08-01T11:13:34;98959.81;;;27.31;86.11
82293;BME280;71892;14.836;105.234;2023-08-01T11:16:05;98957.38;;;27.27;86.16
82293;BME280;71892;14.836;105.234;2023-08-01T11:18:44;98959.44;;;27.23;86.17
82293;BME280;71892;14.836;105.234;2023-08-01T11:21:11;98951.25;;;27.23;86.80
82293;BME280;71892;14.836;105.234;2023-08-01T11:23:37;98894.91;;;27.22;86.61
82293;BME280;71892;14.836;105.234;2023-08-01T11:26:08;98972.44;;;27.19;86.97
82293;BME280;71892;14.836;105.234;2023-08-01T11:28:35;98969.88;;;27.16;87.08
82293;BME280;71892;14.836;105.234;2023-08-01T11:31:09;98972.81;;;27.13;87.26
82293;BME280;71892;14.836;105.234;2023-08-01T11:33:36;98968.47;;;27.11;87.43
82293;BME280;71892;14.836;105.234;2023-08-01T11:36:03;98976.91;;;27.20;87.00
82293;BME280;71892;14.836;105.234;2023-08-01T11:38:33;98982.38;;;27.20;87.01
82293;BME280;71892;14.836;105.234;2023-08-01T11:41:01;98984.91;;;27.23;87.16
82293;BME280;71892;14.836;105.234;2023-08-01T11:43:48;98982.16;;;27.23;87.47
82293;BME280;71892;14.836;105.234;2023-08-01T11:46:14;98983.34;;;27.19;87.81
82293;BME280;71892;14.836;105.234;2023-08-01T11:48:45;98992.91;;;27.12;88.08
82293;BME280;71892;14.836;105.234;2023-08-01T11:51:16;98989.41;;;27.10;88.53
82293;BME280;71892;14.836;105.234;2023-08-01T11:53:43;98979.38;;;27.11;88.35
82293;BME280;71892;14.836;105.234;2023-08-01T11:56:20;98985.00;;;27.08;88.72
82293;BME280;71892;14.836;105.234;2023-08-01T11:58:47;99010.44;;;27.08;88.62
82293;BME280;71892;14.836;105.234;2023-08-01T12:01:14;99004.22;;;27.06;88.68
82293;BME280;71892;14.836;105.234;2023-08-01T12:03:50;99013.28;;;27.07;88.53
82293;BME280;71892;14.836;105.234;2023-08-01T12:06:18;99013.97;;;27.10;88.52
82293;BME280;71892;14.836;105.234;2023-08-01T12:08:46;99025.84;;;27.09;88.33
82293;BME280;71892;14.836;105.234;2023-08-01T12:11:26;99009.50;;;27.09;88.46
82293;BME280;71892;14.836;105.234;2023-08-01T12:14:13;99026.91;;;27.07;88.77
82293;BME280;71892;14.836;105.234;2023-08-01T12:16:45;99029.66;;;27.07;88.79
82293;BME280;71892;14.836;105.234;2023-08-01T12:19:17;99034.94;;;27.10;88.76
82293;BME280;71892;14.836;105.234;2023-08-01T12:21:44;99030.44;;;27.09;88.91
82293;BME280;71892;14.836;105.234;2023-08-01T12:24:11;99039.59;;;27.08;89.15
82293;BME280;71892;14.836;105.234;2023-08-01T12:26:37;99041.75;;;27.03;89.48
82293;BME280;71892;14.836;105.234;2023-08-01T12:29:04;99041.16;;;26.98;89.45
82293;BME280;71892;14.836;105.234;2023-08-01T12:31:31;99046.91;;;26.93;89.32
82293;BME280;71892;14.836;105.234;2023-08-01T12:33:57;99057.16;;;26.90;89.79
82293;BME280;71892;14.836;105.234;2023-08-01T12:36:23;99057.34;;;26.87;90.33
82293;BME280;71892;14.836;105.234;2023-08-01T12:38:50;99059.34;;;26.83;90.58
82293;BME280;71892;14.836;105.234;2023-08-01T12:41:16;99064.91;;;26.81;90.31
82293;BME280;71892;14.836;105.234;2023-08-01T12:43:43;99056.91;;;26.78;90.29